Time;durP1;ratioP1;P1;durP2;ratioP2;P2;SDS_P1;SDS_P2;PMS_P1;PMS_P2;Temp;Humidity;BMP_temperature;BMP_pressure;BME280_temperature;BME280_humidity;BME280_pressure;Samples;Min_cycle;Max_cycle;Signal;HPM_P1;HPM_P2
2023/09/01 00:01:16;;;;;;;2.88;1.20;;;19.50;99.90;;;;;;5044174;28;20050;-83
2023/09/01 00:03:43;;;;;;;2.33;0.98;;;19.40;99.90;;;;;;5041122;28;20058;-83
2023/09/01 00:06:14;;;;;;;1.83;0.80;;;19.40;99.90;;;;;;5024677;28;20061;-83
2023/09/01 00:08:43;;;;;;;2.42;1.38;;;19.40;99.90;;;;;;5035363;28;20064;-83
2023/09/01 00:11:10;;;;;;;4.68;1.10;;;19.40;99.90;;;;;;5041982;28;20045;-83
2023/09/01 00:13:38;;;;;;;1.63;0.88;;;19.40;99.90;;;;;;5045682;28;20041;-83
2023/09/01 00:16:05;;;;;;;2.55;1.05;;;19.40;99.90;;;;;;5037392;28;20052;-81
2023/09/01 00:18:32;;;;;;;2.78;1.15;;;19.40;99.90;;;;;;5037798;28;20129;-82
2023/09/01 00:21:06;;;;;;;1.65;1.00;;;19.40;99.90;;;;;;5044548;28;20042;-83
2023/09/01 00:23:33;;;;;;;4.82;1.30;;;19.50;99.90;;;;;;5033541;28;20046;-81
2023/09/01 00:26:00;;;;;;;2.90;1.27;;;19.40;99.90;;;;;;5037486;28;20049;-83
2023/09/01 00:28:27;;;;;;;3.25;1.10;;;19.40;99.90;;;;;;5043261;28;20309;-82
2023/09/01 00:30:56;;;;;;;2.10;1.13;;;19.40;99.90;;;;;;5018410;28;20041;-83
2023/09/01 00:33:25;;;;;;;2.60;1.10;;;19.40;99.90;;;;;;5035765;28;20038;-83
2023/09/01 00:35:52;;;;;;;3.60;0.98;;;19.40;99.90;;;;;;5026972;28;20060;-83
2023/09/01 00:38:19;;;;;;;2.72;1.15;;;19.40;99.90;;;;;;5029681;28;20049;-84
2023/09/01 00:40:49;;;;;;;3.95;1.25;;;19.40;99.90;;;;;;5037182;28;20037;-83
2023/09/01 00:43:16;;;;;;;4.28;1.33;;;19.40;99.90;;;;;;5044436;28;20088;-81
2023/09/01 00:45:43;;;;;;;3.42;1.20;;;19.40;99.90;;;;;;5028952;28;20045;-83
2023/09/01 00:48:13;;;;;;;3.72;1.20;;;19.30;99.90;;;;;;5033132;28;20049;-83
2023/09/01 00:50:41;;;;;;;4.23;1.17;;;19.30;99.90;;;;;;5038573;28;20046;-81
2023/09/01 00:53:08;;;;;;;3.92;1.15;;;19.30;99.90;;;;;;5013603;28;20049;-83
2023/09/01 00:55:36;;;;;;;3.55;1.17;;;19.30;99.90;;;;;;5035928;28;20053;-84
2023/09/01 00:58:04;;;;;;;3.03;1.00;;;19.20;99.90;;;;;;5033289;28;20048;-82
2023/09/01 01:00:32;;;;;;;2.08;1.17;;;19.20;99.90;;;;;;5036762;28;20045;-83
2023/09/01 01:03:05;;;;;;;5.95;1.20;;;19.20;99.90;;;;;;5036229;28;20124;-83
2023/09/01 01:06:00;;;;;;;5.43;1.20;;;19.20;99.90;;;;;;5039048;28;20041;-83
2023/09/01 01:09:03;;;;;;;1.67;1.02;;;19.20;99.90;;;;;;5040055;28;20032;-85
2023/09/01 01:11:50;;;;;;;2.30;1.00;;;19.20;99.90;;;;;;5040059;28;20049;-82
2023/09/01 01:14:34;;;;;;;2.33;0.98;;;19.20;99.90;;;;;;5042491;28;20068;-83
2023/09/01 01:17:01;;;;;;;2.45;1.30;;;19.20;99.90;;;;;;5031015;28;20049;-82
2023/09/01 01:20:13;;;;;;;4.93;1.27;;;19.10;99.90;;;;;;5037419;28;20041;-82
2023/09/01 01:22:48;;;;;;;2.40;1.25;;;19.10;99.90;;;;;;5031240;28;20073;-82
2023/09/01 01:25:15;;;;;;;3.33;1.00;;;19.10;99.90;;;;;;5038299;28;20038;-81
2023/09/01 01:27:42;;;;;;;3.90;1.20;;;19.10;99.90;;;;;;5021554;28;20064;-82
2023/09/01 01:30:13;;;;;;;3.47;1.30;;;19.10;99.90;;;;;;5036066;28;20041;-82
2023/09/01 01:32:42;;;;;;;1.48;1.08;;;19.10;99.90;;;;;;5032306;28;20042;-82
2023/09/01 01:35:33;;;;;;;1.33;1.10;;;19.00;99.90;;;;;;5036201;28;20076;-83
2023/09/01 01:38:14;;;;;;;2.92;1.10;;;19.00;99.90;;;;;;5039077;28;20042;-80
2023/09/01 01:40:45;;;;;;;2.00;1.00;;;19.00;99.90;;;;;;5023289;28;20069;-83
2023/09/01 01:43:15;;;;;;;2.47;1.15;;;19.00;99.90;;;;;;5026924;28;20050;-83
2023/09/01 01:45:44;;;;;;;1.73;0.98;;;19.00;99.90;;;;;;5038512;28;20042;-83
2023/09/01 01:48:11;;;;;;;3.40;1.30;;;19.10;99.90;;;;;;5015035;28;20052;-83
2023/09/01 01:50:38;;;;;;;2.17;1.27;;;19.00;99.90;;;;;;5040513;28;20042;-82
2023/09/01 01:53:05;;;;;;;2.40;1.00;;;18.90;99.90;;;;;;5037482;28;20481;-83
2023/09/01 01:55:33;;;;;;;1.65;1.02;;;19.00;99.90;;;;;;5018906;28;20053;-83
2023/09/01 01:58:00;;;;;;;1.88;0.75;;;18.90;99.90;;;;;;5038995;28;20055;-80
2023/09/01 02:00:27;;;;;;;3.72;1.00;;;18.90;99.90;;;;;;5036159;28;20045;-82
2023/09/01 02:02:54;;;;;;;3.67;1.13;;;18.90;99.90;;;;;;5032105;28;20045;-82
2023/09/01 02:05:21;;;;;;;2.92;1.00;;;18.90;99.90;;;;;;5022103;28;20050;-83
2023/09/01 02:07:48;;;;;;;3.47;1.20;;;18.90;99.90;;;;;;5040970;28;20103;-83
2023/09/01 02:10:15;;;;;;;2.45;0.85;;;18.80;99.90;;;;;;5036299;28;20046;-82
2023/09/01 02:12:42;;;;;;;3.40;1.13;;;18.80;99.90;;;;;;5038672;28;20045;-82
2023/09/01 02:15:09;;;;;;;1.30;0.65;;;18.80;99.90;;;;;;5040636;28;20108;-83
2023/09/01 02:17:36;;;;;;;4.38;1.00;;;18.70;99.90;;;;;;5024690;28;20106;-82
2023/09/01 02:20:16;;;;;;;2.50;0.90;;;18.70;99.90;;;;;;5038466;28;20101;-82
2023/09/01 02:22:48;;;;;;;3.53;0.82;;;18.70;99.90;;;;;;5040153;28;20095;-83
2023/09/01 02:25:15;;;;;;;2.38;0.90;;;18.70;99.90;;;;;;5034684;28;20049;-82
2023/09/01 02:27:42;;;;;;;3.97;1.00;;;18.70;99.90;;;;;;5038611;28;20088;-82
2023/09/01 02:30:10;;;;;;;2.28;0.90;;;18.70;99.90;;;;;;5038292;28;20046;-83
2023/09/01 02:32:38;;;;;;;4.95;1.10;;;18.80;99.90;;;;;;5034159;28;20046;-83
2023/09/01 02:35:06;;;;;;;2.03;1.00;;;18.80;99.90;;;;;;5042086;28;20076;-83
2023/09/01 02:37:33;;;;;;;3.38;0.98;;;18.70;99.90;;;;;;5030643;28;20041;-83
2023/09/01 02:40:00;;;;;;;2.17;0.77;;;18.80;99.90;;;;;;5022779;28;20073;-83
2023/09/01 02:42:27;;;;;;;1.83;0.93;;;18.80;99.90;;;;;;5041699;28;20050;-83
2023/09/01 02:44:54;;;;;;;4.07;1.00;;;18.80;99.90;;;;;;5045911;28;20045;-82
2023/09/01 02:47:21;;;;;;;2.22;0.80;;;18.80;99.90;;;;;;5036908;28;20061;-82
2023/09/01 02:49:47;;;;;;;5.47;1.30;;;18.80;99.90;;;;;;5046115;28;20339;-81
2023/09/01 02:52:14;;;;;;;2.95;1.00;;;18.80;99.90;;;;;;5031840;28;20045;-82
2023/09/01 02:54:41;;;;;;;3.92;1.10;;;18.80;99.90;;;;;;5041046;28;20045;-84
2023/09/01 02:57:07;;;;;;;3.45;0.90;;;18.80;99.90;;;;;;5044023;28;20048;-83
2023/09/01 02:59:34;;;;;;;2.75;0.95;;;18.80;99.90;;;;;;5050457;28;20044;-83
2023/09/01 03:02:01;;;;;;;1.85;1.00;;;18.80;99.90;;;;;;5038427;28;20033;-83
2023/09/01 03:04:30;;;;;;;1.80;1.15;;;18.80;99.90;;;;;;5052178;28;20038;-85
2023/09/01 03:06:57;;;;;;;2.70;0.80;;;18.80;99.90;;;;;;5053494;28;20049;-84
2023/09/01 03:09:24;;;;;;;3.28;1.00;;;18.80;99.90;;;;;;5026721;28;20077;-84
2023/09/01 03:11:50;;;;;;;3.42;1.00;;;18.80;99.90;;;;;;5042642;28;20038;-84
2023/09/01 03:14:17;;;;;;;4.43;1.20;;;18.80;99.90;;;;;;5051785;28;20049;-82
2023/09/01 03:16:44;;;;;;;4.95;1.35;;;18.80;99.90;;;;;;5045887;28;20095;-84
2023/09/01 03:19:11;;;;;;;2.55;1.00;;;18.80;99.90;;;;;;5046388;28;20053;-83
2023/09/01 03:21:37;;;;;;;6.70;1.58;;;18.80;99.90;;;;;;5051642;28;20041;-83
2023/09/01 03:24:04;;;;;;;1.67;1.02;;;18.80;99.90;;;;;;5029092;28;20060;-82
2023/09/01 03:26:31;;;;;;;2.90;1.10;;;18.80;99.90;;;;;;5042967;28;20049;-84
2023/09/01 03:28:58;;;;;;;6.15;1.13;;;18.80;99.90;;;;;;5030158;28;20107;-83
2023/09/01 03:31:27;;;;;;;4.32;1.02;;;18.90;99.90;;;;;;5040198;28;20053;-84
2023/09/01 03:33:54;;;;;;;5.10;0.95;;;18.80;99.90;;;;;;5042364;28;20069;-83
2023/09/01 03:36:21;;;;;;;3.67;1.30;;;18.80;99.90;;;;;;5027827;28;20132;-83
2023/09/01 03:38:48;;;;;;;1.77;1.00;;;18.80;99.90;;;;;;5040406;28;20054;-82
2023/09/01 03:41:15;;;;;;;1.73;1.00;;;18.80;99.90;;;;;;5036338;28;20077;-83
2023/09/01 03:43:41;;;;;;;3.17;1.20;;;18.80;99.90;;;;;;5043095;28;20042;-83
2023/09/01 03:46:08;;;;;;;4.20;1.30;;;18.80;99.90;;;;;;5044613;28;20042;-81
2023/09/01 03:48:35;;;;;;;3.45;1.00;;;18.80;99.90;;;;;;5023549;28;20041;-81
2023/09/01 03:51:16;;;;;;;3.38;1.13;;;18.80;99.90;;;;;;5040622;28;20041;-82
2023/09/01 03:53:43;;;;;;;1.48;0.63;;;18.90;99.90;;;;;;5036093;28;20132;-82
2023/09/01 03:56:15;;;;;;;4.78;1.00;;;18.80;99.90;;;;;;5033294;28;20049;-83
2023/09/01 03:58:42;;;;;;;2.35;0.90;;;18.80;99.90;;;;;;5042113;28;20041;-84
2023/09/01 04:01:11;;;;;;;4.22;0.80;;;18.90;99.90;;;;;;5045065;28;20050;-82
2023/09/01 04:03:43;;;;;;;2.53;1.00;;;18.80;99.90;;;;;;5041051;28;20052;-82
2023/09/01 04:06:11;;;;;;;4.47;1.08;;;18.90;99.90;;;;;;5042388;28;20520;-82
2023/09/01 04:08:38;;;;;;;4.38;1.13;;;18.90;99.90;;;;;;5043734;28;20045;-84
2023/09/01 04:11:05;;;;;;;1.90;0.98;;;18.90;99.90;;;;;;5035404;28;20041;-83
2023/09/01 04:13:33;;;;;;;3.17;1.30;;;18.90;99.90;;;;;;5022400;28;20042;-83
2023/09/01 04:16:00;;;;;;;2.05;0.70;;;18.90;99.90;;;;;;5027761;28;20049;-82
2023/09/01 04:18:27;;;;;;;2.92;1.13;;;18.90;99.90;;;;;;5039269;28;20029;-82
2023/09/01 04:20:55;;;;;;;2.45;1.30;;;18.90;99.90;;;;;;5043163;28;20073;-83
2023/09/01 04:23:21;;;;;;;2.85;1.40;;;18.90;99.90;;;;;;5046116;28;20081;-80
2023/09/01 04:25:49;;;;;;;2.90;1.33;;;18.80;99.90;;;;;;5030118;28;20109;-83
2023/09/01 04:28:16;;;;;;;2.05;1.13;;;18.90;99.90;;;;;;5020845;28;20060;-83
2023/09/01 04:30:44;;;;;;;5.85;1.98;;;18.80;99.90;;;;;;5045576;28;20096;-83
2023/09/01 04:33:11;;;;;;;3.00;1.00;;;18.90;99.90;;;;;;5036207;28;20050;-83
2023/09/01 04:35:39;;;;;;;2.95;0.90;;;18.80;99.90;;;;;;5037795;28;20066;-83
2023/09/01 04:38:06;;;;;;;2.38;1.40;;;18.80;99.90;;;;;;5037821;28;20048;-81
2023/09/01 04:40:32;;;;;;;2.83;1.00;;;18.80;99.90;;;;;;5029574;28;20156;-82
2023/09/01 04:42:59;;;;;;;4.28;1.15;;;18.80;99.90;;;;;;5037388;28;20041;-81
2023/09/01 04:45:26;;;;;;;2.65;1.02;;;18.80;99.90;;;;;;5044908;28;20080;-83
2023/09/01 04:47:53;;;;;;;3.28;1.00;;;18.80;99.90;;;;;;5036317;28;20056;-82
2023/09/01 04:50:20;;;;;;;1.52;0.80;;;18.70;99.90;;;;;;5038671;28;20049;-82
2023/09/01 04:52:47;;;;;;;2.75;1.40;;;18.70;99.90;;;;;;5044002;28;20054;-82
2023/09/01 04:55:13;;;;;;;5.07;1.15;;;18.70;99.90;;;;;;5031392;28;20065;-83
2023/09/01 04:57:40;;;;;;;3.47;1.10;;;18.70;99.90;;;;;;5040665;28;20072;-83
2023/09/01 05:00:15;;;;;;;1.92;1.23;;;18.70;99.90;;;;;;5043188;28;20041;-80
2023/09/01 05:02:44;;;;;;;4.68;1.33;;;18.70;99.90;;;;;;5037252;28;20068;-83
2023/09/01 05:05:13;;;;;;;3.92;1.15;;;18.70;99.90;;;;;;5037004;28;20051;-84
2023/09/01 05:07:40;;;;;;;4.10;1.15;;;18.70;99.90;;;;;;5041994;28;20104;-80
2023/09/01 05:10:08;;;;;;;3.35;0.90;;;18.60;99.90;;;;;;5033636;28;20049;-83
2023/09/01 05:12:35;;;;;;;2.67;1.10;;;18.60;99.90;;;;;;5039367;28;20113;-82
2023/09/01 05:15:03;;;;;;;3.72;1.27;;;18.60;99.90;;;;;;5044416;28;20049;-83
2023/09/01 05:17:30;;;;;;;4.35;1.25;;;18.60;99.90;;;;;;5039070;28;20064;-83
2023/09/01 05:19:57;;;;;;;3.38;1.42;;;18.60;99.90;;;;;;5038442;28;20046;-82
2023/09/01 05:22:25;;;;;;;6.40;1.05;;;18.60;99.90;;;;;;5024667;28;20481;-85
2023/09/01 05:24:53;;;;;;;7.38;1.83;;;18.60;99.90;;;;;;5036552;28;20456;-83
2023/09/01 05:27:20;;;;;;;2.28;1.02;;;18.60;99.90;;;;;;5039240;28;20144;-82
2023/09/01 05:29:47;;;;;;;3.95;1.05;;;18.60;99.90;;;;;;5042075;28;20041;-81
2023/09/01 05:32:18;;;;;;;1.77;1.10;;;18.60;99.90;;;;;;5022887;28;20120;-82
2023/09/01 05:34:45;;;;;;;3.15;1.10;;;18.60;99.90;;;;;;5035546;28;20045;-82
2023/09/01 05:37:12;;;;;;;2.83;1.10;;;18.60;99.90;;;;;;5040210;28;20460;-83
2023/09/01 05:39:42;;;;;;;4.63;0.98;;;18.60;99.90;;;;;;5040432;28;20041;-83
2023/09/01 05:42:10;;;;;;;1.85;0.95;;;18.60;99.90;;;;;;5039271;28;20077;-82
2023/09/01 05:44:37;;;;;;;4.50;1.30;;;18.60;99.90;;;;;;5024450;28;20473;-81
2023/09/01 05:47:04;;;;;;;4.72;1.10;;;18.60;99.90;;;;;;5025406;28;20057;-83
2023/09/01 05:49:32;;;;;;;4.25;1.20;;;18.60;99.90;;;;;;5034131;28;20050;-81
2023/09/01 05:52:00;;;;;;;2.45;1.20;;;18.60;99.90;;;;;;5041224;28;20306;-82
2023/09/01 05:54:27;;;;;;;4.53;1.40;;;18.70;99.90;;;;;;5037521;28;20057;-81
2023/09/01 05:56:54;;;;;;;4.55;1.50;;;18.60;99.90;;;;;;5040016;28;20068;-80
2023/09/01 05:59:21;;;;;;;4.40;1.95;;;18.60;99.90;;;;;;5042248;28;20054;-80
2023/09/01 06:01:48;;;;;;;4.07;1.40;;;18.60;99.90;;;;;;5044976;28;20049;-84
2023/09/01 06:04:14;;;;;;;1.67;0.90;;;18.60;99.90;;;;;;5036791;28;20053;-83
2023/09/01 06:06:41;;;;;;;1.63;1.00;;;18.60;99.90;;;;;;5044582;28;20045;-84
2023/09/01 06:09:09;;;;;;;3.17;1.20;;;18.60;99.90;;;;;;5049917;28;20048;-83
2023/09/01 06:11:39;;;;;;;6.93;1.63;;;18.70;99.90;;;;;;5046558;28;20050;-83
2023/09/01 06:14:06;;;;;;;6.78;1.15;;;18.70;99.90;;;;;;5044425;28;20045;-83
2023/09/01 06:16:33;;;;;;;5.85;1.40;;;18.70;99.90;;;;;;5047180;28;20073;-83
2023/09/01 06:19:00;;;;;;;4.28;1.25;;;18.70;99.90;;;;;;5019667;28;20105;-79
2023/09/01 06:21:27;;;;;;;3.20;1.33;;;18.70;99.90;;;;;;5037950;28;20133;-83
2023/09/01 06:23:54;;;;;;;2.67;1.15;;;18.80;99.90;;;;;;5050155;28;20041;-82
2023/09/01 06:26:21;;;;;;;4.63;1.15;;;18.80;99.90;;;;;;5044379;28;20073;-83
2023/09/01 06:28:48;;;;;;;3.25;1.00;;;18.90;99.90;;;;;;5044884;28;20076;-83
2023/09/01 06:31:16;;;;;;;3.72;1.13;;;18.90;99.90;;;;;;5051221;28;20425;-84
2023/09/01 06:33:44;;;;;;;3.28;1.00;;;19.00;99.90;;;;;;5040032;28;20600;-83
2023/09/01 06:36:13;;;;;;;3.03;0.93;;;19.10;99.90;;;;;;5044167;28;20077;-84
2023/09/01 06:38:41;;;;;;;3.95;1.10;;;19.10;99.90;;;;;;5037539;28;20096;-81
2023/09/01 06:41:08;;;;;;;2.65;1.17;;;19.20;99.90;;;;;;5048370;28;20075;-82
2023/09/01 06:43:36;;;;;;;2.42;1.17;;;19.20;99.90;;;;;;5045237;28;20114;-84
2023/09/01 06:46:02;;;;;;;4.60;1.00;;;19.20;99.90;;;;;;5052735;28;20033;-84
2023/09/01 06:48:30;;;;;;;3.70;1.27;;;19.30;99.90;;;;;;5044907;28;20054;-84
2023/09/01 06:51:02;;;;;;;2.85;1.20;;;19.40;99.90;;;;;;5030529;28;20046;-84
2023/09/01 06:53:29;;;;;;;2.75;1.02;;;19.40;99.90;;;;;;5045782;28;20485;-83
2023/09/01 06:55:56;;;;;;;1.45;0.93;;;19.40;99.90;;;;;;5028938;28;20060;-83
2023/09/01 06:58:23;;;;;;;2.88;0.90;;;19.60;99.90;;;;;;5037822;28;20046;-83
2023/09/01 07:00:53;;;;;;;3.00;1.63;;;19.60;99.90;;;;;;5043215;28;20049;-83
2023/09/01 07:03:20;;;;;;;3.83;1.90;;;19.60;99.90;;;;;;5022893;28;20113;-83
2023/09/01 07:05:55;;;;;;;7.70;3.55;;;19.60;99.90;;;;;;5043497;28;20064;-83
2023/09/01 07:08:22;;;;;;;6.68;2.90;;;19.60;99.90;;;;;;5046153;28;20049;-82
2023/09/01 07:10:48;;;;;;;5.40;2.17;;;19.70;99.90;;;;;;5026019;28;20057;-83
2023/09/01 07:13:15;;;;;;;5.15;1.38;;;19.60;99.90;;;;;;5039700;28;20049;-82
2023/09/01 07:15:51;;;;;;;4.07;1.45;;;19.70;99.90;;;;;;5045111;28;20112;-82
2023/09/01 07:18:18;;;;;;;2.63;1.10;;;19.70;99.90;;;;;;5038081;28;20515;-81
2023/09/01 07:20:46;;;;;;;2.35;1.20;;;19.80;99.90;;;;;;5042491;28;20049;-82
2023/09/01 07:23:13;;;;;;;5.78;1.20;;;19.90;99.90;;;;;;5026794;28;20053;-83
2023/09/01 07:25:40;;;;;;;3.28;1.05;;;20.00;99.90;;;;;;5042891;28;20054;-83
2023/09/01 07:28:07;;;;;;;1.42;0.80;;;20.10;99.90;;;;;;5038611;28;20112;-83
2023/09/01 07:30:34;;;;;;;2.33;0.98;;;20.30;99.90;;;;;;5025838;28;20053;-81
2023/09/01 07:33:00;;;;;;;2.15;1.00;;;20.40;99.90;;;;;;5042586;28;20046;-83
2023/09/01 07:35:27;;;;;;;2.38;0.93;;;20.50;99.90;;;;;;5022242;28;20037;-83
2023/09/01 07:37:55;;;;;;;2.45;1.38;;;20.50;99.90;;;;;;5044501;28;20107;-82
2023/09/01 07:40:23;;;;;;;4.95;1.10;;;20.50;99.90;;;;;;5035510;28;20054;-82
2023/09/01 07:42:50;;;;;;;5.68;1.17;;;20.70;99.90;;;;;;5035927;28;20050;-84
2023/09/01 07:45:16;;;;;;;1.95;0.73;;;20.70;99.90;;;;;;5041296;28;20076;-83
2023/09/01 07:47:44;;;;;;;3.97;1.20;;;20.80;99.90;;;;;;5044454;28;20396;-83
2023/09/01 07:50:10;;;;;;;2.15;1.00;;;20.90;99.90;;;;;;5041408;28;20080;-81
2023/09/01 07:52:37;;;;;;;2.80;0.80;;;21.00;99.90;;;;;;5026768;28;20479;-83
2023/09/01 07:55:05;;;;;;;5.93;1.08;;;21.00;99.90;;;;;;5030328;28;20163;-84
2023/09/01 07:57:32;;;;;;;4.13;0.95;;;21.10;99.90;;;;;;5021583;28;20109;-83
2023/09/01 07:59:59;;;;;;;2.50;0.90;;;21.10;99.90;;;;;;5041761;28;20086;-82
2023/09/01 08:02:26;;;;;;;6.07;1.05;;;21.20;99.90;;;;;;5046487;28;20054;-84
2023/09/01 08:04:53;;;;;;;2.63;1.23;;;21.20;99.90;;;;;;5043564;28;20122;-83
2023/09/01 08:07:20;;;;;;;4.20;0.70;;;21.20;99.90;;;;;;5042181;28;20058;-82
2023/09/01 08:09:47;;;;;;;2.30;0.95;;;21.30;99.90;;;;;;5046947;28;20050;-83
2023/09/01 08:12:13;;;;;;;4.03;0.82;;;21.40;99.90;;;;;;5017639;28;20069;-82
2023/09/01 08:14:40;;;;;;;3.63;0.95;;;21.30;99.90;;;;;;5040150;28;20049;-84
2023/09/01 08:17:07;;;;;;;4.40;0.98;;;21.40;99.90;;;;;;5046733;28;20076;-82
2023/09/01 08:19:34;;;;;;;3.08;0.98;;;21.40;99.90;;;;;;5021927;28;20046;-83
2023/09/01 08:22:02;;;;;;;3.20;0.90;;;21.50;99.90;;;;;;5039170;28;20037;-83
2023/09/01 08:24:29;;;;;;;1.50;0.80;;;21.60;99.90;;;;;;5044857;28;20056;-83
2023/09/01 08:26:55;;;;;;;2.17;0.90;;;21.60;99.90;;;;;;5035953;28;20080;-83
2023/09/01 08:29:22;;;;;;;1.45;0.90;;;21.70;99.90;;;;;;5022227;28;20057;-82
2023/09/01 08:31:49;;;;;;;1.90;0.73;;;21.70;99.90;;;;;;5029026;28;20057;-82
2023/09/01 08:34:16;;;;;;;1.65;0.70;;;21.70;99.90;;;;;;5041373;28;20045;-84
2023/09/01 08:36:43;;;;;;;3.08;0.85;;;21.70;99.90;;;;;;5041146;28;20058;-84
2023/09/01 08:39:10;;;;;;;5.43;0.80;;;21.70;99.90;;;;;;5045805;28;20038;-84
2023/09/01 08:41:40;;;;;;;2.15;1.05;;;21.70;99.90;;;;;;5037376;28;20055;-83
2023/09/01 08:44:11;;;;;;;2.28;0.85;;;21.70;99.90;;;;;;5036706;28;20057;-83
2023/09/01 08:46:37;;;;;;;3.22;0.82;;;21.80;99.90;;;;;;5046648;28;20111;-83
2023/09/01 08:49:04;;;;;;;3.78;0.90;;;21.80;99.90;;;;;;5044817;28;20124;-82
2023/09/01 08:51:31;;;;;;;3.70;0.95;;;21.80;99.90;;;;;;5040894;28;20053;-84
2023/09/01 08:53:59;;;;;;;2.63;1.00;;;21.90;99.90;;;;;;5046123;28;20049;-82
2023/09/01 08:56:26;;;;;;;1.10;0.70;;;21.90;99.90;;;;;;5041891;28;20041;-82
2023/09/01 08:58:52;;;;;;;2.95;0.85;;;22.00;99.90;;;;;;5039333;28;20060;-84
2023/09/01 09:01:19;;;;;;;2.15;0.80;;;22.00;99.90;;;;;;5029690;28;20041;-84
2023/09/01 09:03:46;;;;;;;3.35;1.27;;;22.10;99.90;;;;;;5044866;28;20050;-82
2023/09/01 09:06:13;;;;;;;3.75;1.50;;;22.10;99.90;;;;;;5038687;28;20053;-83
2023/09/01 09:08:40;;;;;;;4.32;1.42;;;22.20;99.90;;;;;;5042168;28;20049;-82
2023/09/01 09:11:13;;;;;;;2.65;1.10;;;22.20;99.90;;;;;;5041544;28;20058;-83
2023/09/01 09:13:40;;;;;;;3.65;0.80;;;22.30;99.90;;;;;;5036529;28;20054;-83
2023/09/01 09:16:14;;;;;;;3.22;1.02;;;22.30;99.90;;;;;;5043483;28;20057;-82
2023/09/01 09:18:42;;;;;;;3.92;0.80;;;22.40;99.90;;;;;;5038272;28;20045;-83
2023/09/01 09:21:29;;;;;;;2.45;1.00;;;22.40;99.90;;;;;;5036960;28;20041;-84
2023/09/01 09:24:00;;;;;;;2.10;1.08;;;22.50;99.90;;;;;;5042553;28;20105;-82
2023/09/01 09:26:46;;;;;;;2.63;0.95;;;22.50;99.90;;;;;;5038557;28;20052;-84
2023/09/01 09:29:14;;;;;;;3.08;0.90;;;22.60;99.90;;;;;;5042140;28;20557;-83
2023/09/01 09:31:41;;;;;;;2.05;0.90;;;22.60;99.90;;;;;;5045446;28;20517;-83
2023/09/01 09:34:17;;;;;;;1.83;1.15;;;22.60;99.90;;;;;;5041797;28;20045;-83
2023/09/01 09:36:46;;;;;;;2.13;0.68;;;22.60;99.90;;;;;;5036723;28;20046;-84
2023/09/01 09:39:27;;;;;;;2.22;0.80;;;22.70;99.90;;;;;;5044205;28;20072;-82
2023/09/01 09:41:56;;;;;;;4.97;1.02;;;22.80;99.90;;;;;;5039865;28;20077;-82
2023/09/01 09:44:25;;;;;;;2.05;0.85;;;22.80;99.90;;;;;;5041801;28;20049;-79
2023/09/01 09:46:53;;;;;;;1.27;0.80;;;22.80;99.90;;;;;;5045747;28;20080;-82
2023/09/01 09:49:21;;;;;;;1.70;0.65;;;22.80;99.90;;;;;;5044522;28;20122;-83
2023/09/01 09:51:50;;;;;;;2.25;1.33;;;23.00;99.90;;;;;;5043319;28;20536;-84
2023/09/01 09:54:20;;;;;;;1.63;0.70;;;23.00;99.90;;;;;;5047623;28;20068;-81
2023/09/01 09:56:51;;;;;;;4.63;0.80;;;23.10;99.90;;;;;;5042476;28;20049;-81
2023/09/01 09:59:28;;;;;;;1.45;0.70;;;23.10;99.90;;;;;;5046971;28;20048;-84
2023/09/01 10:01:56;;;;;;;2.40;1.05;;;23.20;99.90;;;;;;5049660;28;20072;-83
2023/09/01 10:04:25;;;;;;;1.65;0.70;;;23.20;99.90;;;;;;5050173;28;20045;-83
2023/09/01 10:06:52;;;;;;;2.78;0.60;;;23.20;99.90;;;;;;5041618;28;20109;-81
2023/09/01 10:09:19;;;;;;;2.80;0.80;;;23.20;99.90;;;;;;5050719;28;20041;-84
2023/09/01 10:11:46;;;;;;;1.75;0.88;;;23.20;99.90;;;;;;5035910;28;20068;-83
2023/09/01 10:14:15;;;;;;;2.08;0.90;;;23.10;99.90;;;;;;5048196;28;20079;-81
2023/09/01 10:16:42;;;;;;;1.63;0.90;;;23.10;99.90;;;;;;5045530;28;20049;-80
2023/09/01 10:19:12;;;;;;;2.08;0.80;;;23.10;99.90;;;;;;5022064;28;20045;-83
2023/09/01 10:21:41;;;;;;;2.17;0.90;;;23.10;99.90;;;;;;5021568;28;20053;-83
2023/09/01 10:24:16;;;;;;;1.35;0.90;;;23.20;99.90;;;;;;5045084;28;20042;-82
2023/09/01 10:26:43;;;;;;;1.45;1.00;;;23.20;99.90;;;;;;5029436;28;20080;-83
2023/09/01 10:29:10;;;;;;;3.55;1.08;;;23.20;99.90;;;;;;5039564;28;20103;-83
2023/09/01 10:31:37;;;;;;;1.40;0.93;;;23.30;99.90;;;;;;5045402;28;20080;-84
2023/09/01 10:34:08;;;;;;;3.38;0.90;;;23.30;99.90;;;;;;5048339;28;20053;-84
2023/09/01 10:36:36;;;;;;;3.05;1.02;;;23.30;99.90;;;;;;5038178;28;20068;-82
2023/09/01 10:39:24;;;;;;;3.70;1.08;;;23.30;99.90;;;;;;5043678;28;20050;-81
2023/09/01 10:41:58;;;;;;;3.55;1.02;;;23.30;99.90;;;;;;5042861;28;20045;-81
2023/09/01 10:44:42;;;;;;;2.83;1.23;;;23.30;99.90;;;;;;5042302;28;20045;-83
2023/09/01 10:47:31;;;;;;;2.55;1.02;;;23.20;99.90;;;;;;5046258;28;20041;-81
2023/09/01 10:49:59;;;;;;;1.65;0.90;;;23.10;99.90;;;;;;5016473;28;20050;-82
2023/09/01 10:52:28;;;;;;;2.92;1.20;;;23.10;99.90;;;;;;5039643;28;20049;-82
2023/09/01 10:55:00;;;;;;;2.65;1.67;;;23.00;99.90;;;;;;5048127;28;20053;-84
2023/09/01 10:57:41;;;;;;;3.75;1.00;;;23.00;99.90;;;;;;5042997;28;20101;-81
2023/09/01 11:00:24;;;;;;;2.05;1.08;;;23.00;99.90;;;;;;5043180;28;20056;-81
2023/09/01 11:02:51;;;;;;;1.42;0.90;;;23.00;99.90;;;;;;5047064;28;20041;-84
2023/09/01 11:05:38;;;;;;;2.72;0.90;;;23.00;99.90;;;;;;5038369;28;20069;-85
2023/09/01 11:08:18;;;;;;;5.13;0.93;;;23.00;99.90;;;;;;5041939;28;20105;-83
2023/09/01 11:10:45;;;;;;;1.45;0.90;;;23.10;99.90;;;;;;5047669;28;20046;-83
2023/09/01 11:13:17;;;;;;;2.97;1.10;;;23.10;99.90;;;;;;5022563;28;20048;-81
2023/09/01 11:15:47;;;;;;;2.10;0.88;;;23.20;99.90;;;;;;5041941;28;20057;-83
2023/09/01 11:18:24;;;;;;;2.00;1.10;;;23.20;99.90;;;;;;5044575;28;20041;-82
2023/09/01 11:20:54;;;;;;;3.63;0.90;;;23.30;99.90;;;;;;5034027;28;20050;-83
2023/09/01 11:23:22;;;;;;;2.03;1.10;;;23.40;99.90;;;;;;5045518;28;20053;-83
2023/09/01 11:25:57;;;;;;;1.58;0.85;;;23.50;99.90;;;;;;5049285;28;20218;-83
2023/09/01 11:28:26;;;;;;;1.20;1.00;;;23.70;99.90;;;;;;5031937;28;20045;-84
2023/09/01 11:30:54;;;;;;;3.08;0.75;;;23.80;99.90;;;;;;5040055;28;20053;-83
2023/09/01 11:33:22;;;;;;;2.50;1.00;;;23.80;99.90;;;;;;5047971;28;20049;-84
2023/09/01 11:36:02;;;;;;;5.50;1.50;;;23.80;99.90;;;;;;5037792;28;20057;-84
2023/09/01 11:38:28;;;;;;;4.13;1.10;;;23.80;99.90;;;;;;5042838;28;20045;-80
2023/09/01 11:40:56;;;;;;;6.03;1.20;;;23.80;99.90;;;;;;5047529;28;20277;-82
2023/09/01 11:43:24;;;;;;;1.90;0.80;;;23.80;99.90;;;;;;5037716;28;20045;-82
2023/09/01 11:45:51;;;;;;;1.52;0.95;;;23.80;99.90;;;;;;5036961;28;20058;-83
2023/09/01 11:48:25;;;;;;;1.23;0.88;;;23.90;99.90;;;;;;5046857;28;20065;-83
2023/09/01 11:50:53;;;;;;;1.50;0.93;;;23.90;99.90;;;;;;5028144;28;20088;-83
2023/09/01 11:53:34;;;;;;;3.47;0.90;;;23.90;99.90;;;;;;5032225;28;20068;-84
2023/09/01 11:56:17;;;;;;;2.25;0.85;;;24.00;99.90;;;;;;5046112;28;20050;-83
2023/09/01 11:58:48;;;;;;;2.72;0.80;;;24.00;99.90;;;;;;5028390;28;20046;-84
2023/09/01 12:01:17;;;;;;;1.30;0.80;;;24.00;99.90;;;;;;5041645;28;20041;-84
2023/09/01 12:03:48;;;;;;;1.50;0.98;;;24.00;99.90;;;;;;5048840;28;20069;-81
2023/09/01 12:06:16;;;;;;;;;;;24.10;99.90;;;;;;5041336;28;20037;-83
2023/09/01 12:08:43;;;;;;;2.53;1.00;;;24.10;99.90;;;;;;5044690;28;19971;-81
2023/09/01 12:11:10;;;;;;;3.65;0.90;;;24.10;99.90;;;;;;5045624;28;20144;-83
2023/09/01 12:13:37;;;;;;;1.73;0.77;;;24.10;99.90;;;;;;5040709;28;20065;-82
2023/09/01 12:16:04;;;;;;;1.50;0.80;;;24.10;99.90;;;;;;5040571;28;20061;-84
2023/09/01 12:18:38;;;;;;;1.63;0.90;;;24.00;99.90;;;;;;5047357;28;20049;-84
2023/09/01 12:21:07;;;;;;;3.92;0.90;;;24.10;99.90;;;;;;5043709;28;20045;-84
2023/09/01 12:23:38;;;;;;;1.75;0.80;;;24.10;99.90;;;;;;5040422;28;20393;-83
2023/09/01 12:26:05;;;;;;;3.08;0.82;;;24.20;99.90;;;;;;5046450;28;20049;-81
2023/09/01 12:28:35;;;;;;;2.15;0.88;;;24.20;99.90;;;;;;5040004;28;20054;-84
2023/09/01 12:31:04;;;;;;;3.38;0.82;;;24.30;99.90;;;;;;5038102;28;20119;-83
2023/09/01 12:33:31;;;;;;;4.32;0.90;;;24.30;99.90;;;;;;5046418;28;20053;-83
2023/09/01 12:35:59;;;;;;;3.15;0.98;;;24.40;99.90;;;;;;5042608;28;20046;-83
2023/09/01 12:38:26;;;;;;;1.75;0.80;;;24.40;99.90;;;;;;5042262;28;20049;-83
2023/09/01 12:40:54;;;;;;;6.15;0.88;;;24.50;99.90;;;;;;5045298;28;20060;-79
2023/09/01 12:43:21;;;;;;;2.85;1.08;;;24.40;99.90;;;;;;5013856;28;20045;-83
2023/09/01 12:45:48;;;;;;;1.25;0.85;;;24.50;99.90;;;;;;5038921;28;20053;-83
2023/09/01 12:48:16;;;;;;;2.40;1.00;;;24.40;99.90;;;;;;5028142;28;20105;-84
2023/09/01 12:50:47;;;;;;;3.13;1.10;;;24.40;99.90;;;;;;5042929;28;20056;-84
2023/09/01 12:53:14;;;;;;;2.08;1.02;;;24.40;99.90;;;;;;5041038;28;20106;-83
2023/09/01 12:55:42;;;;;;;1.27;0.75;;;24.50;99.90;;;;;;5044924;28;20046;-84
2023/09/01 12:58:09;;;;;;;6.68;0.90;;;24.50;99.90;;;;;;5042589;28;20046;-84